createdAt,value
2018-11-12T00:00:50.179Z,12.22
2018-11-12T00:03:19.630Z,12.15
2018-11-12T00:05:49.445Z,12.04
2018-11-12T00:08:19.257Z,11.92
2018-11-12T00:10:49.578Z,11.80
2018-11-12T00:13:38.006Z,11.77
2018-11-12T00:16:08.027Z,11.88
2018-11-12T00:18:38.142Z,11.61
2018-11-12T00:21:07.566Z,11.51
2018-11-12T00:23:56.074Z,11.46
2018-11-12T00:26:26.339Z,11.16
2018-11-12T00:28:56.430Z,11.30
2018-11-12T00:31:26.109Z,11.19
2018-11-12T00:33:56.496Z,11.24
2018-11-12T00:36:26.625Z,11.39
2018-11-12T00:38:56.822Z,11.43
2018-11-12T00:41:26.715Z,11.52
2018-11-12T00:44:15.155Z,11.37
2018-11-12T00:46:44.972Z,11.25
2018-11-12T00:49:34.000Z,11.19
2018-11-12T00:52:03.529Z,11.10
2018-11-12T00:54:33.007Z,11.11
2018-11-12T00:57:02.801Z,11.16
2018-11-12T00:59:32.915Z,11.12
2018-11-12T01:02:02.383Z,11.15
2018-11-12T01:04:50.778Z,10.97
2018-11-12T01:07:39.426Z,11.09
2018-11-12T01:10:11.113Z,11.25
2018-11-12T01:12:40.791Z,11.35
2018-11-12T01:15:12.567Z,11.48
2018-11-12T01:17:42.789Z,11.67
2018-11-12T01:20:13.438Z,11.71
2018-11-12T01:23:01.903Z,11.68
2018-11-12T01:25:32.058Z,11.73
2018-11-12T01:28:01.539Z,11.82
2018-11-12T01:30:31.227Z,11.76
2018-11-12T01:33:00.690Z,11.85
2018-11-12T01:35:49.180Z,11.78
2018-11-12T01:38:18.622Z,11.91
2018-11-12T01:40:48.344Z,12.02
2018-11-12T01:43:18.175Z,11.92
2018-11-12T01:45:47.882Z,11.74
2018-11-12T01:48:17.625Z,11.74
2018-11-12T01:50:47.119Z,11.83
2018-11-12T01:53:16.844Z,11.88
2018-11-12T01:55:46.300Z,11.87
2018-11-12T01:58:15.775Z,11.87
2018-11-12T02:00:45.245Z,11.75
2018-11-12T02:03:14.692Z,11.78
2018-11-12T02:05:44.175Z,11.76
2018-11-12T02:08:13.862Z,11.84
2018-11-12T02:11:02.533Z,11.78
2018-11-12T02:13:32.224Z,11.82
2018-11-12T02:16:02.288Z,11.83
2018-11-12T02:18:31.710Z,11.66
2018-11-12T02:21:01.150Z,11.76
2018-11-12T02:23:49.252Z,11.70
2018-11-12T02:26:18.698Z,11.52
2018-11-12T02:29:07.144Z,11.50
2018-11-12T02:31:36.628Z,11.31
2018-11-12T02:34:24.984Z,11.10
2018-11-12T02:36:55.370Z,10.94
2018-11-12T02:39:44.003Z,11.08
2018-11-12T02:42:13.449Z,10.93
2018-11-12T02:44:44.170Z,10.83
2018-11-12T02:47:32.591Z,10.73
2018-11-12T02:50:02.270Z,10.57
2018-11-12T02:52:31.973Z,10.69
2018-11-12T02:55:01.678Z,10.70
2018-11-12T02:57:31.142Z,10.67
2018-11-12T03:00:00.871Z,10.71
2018-11-12T03:02:30.596Z,10.56
2018-11-12T03:05:00.699Z,10.62
2018-11-12T03:07:30.209Z,10.52
2018-11-12T03:10:00.237Z,10.47
2018-11-12T03:12:48.904Z,10.37
2018-11-12T03:15:19.031Z,10.33
2018-11-12T03:17:49.882Z,10.18
2018-11-12T03:20:20.491Z,10.12
2018-11-12T03:23:08.923Z,10.06
2018-11-12T03:25:38.607Z,9.95
2018-11-12T03:28:08.023Z,9.87
2018-11-12T03:30:38.119Z,9.79
2018-11-12T03:33:07.710Z,9.76
2018-11-12T03:35:56.184Z,9.73
2018-11-12T03:38:26.323Z,9.74
2018-11-12T03:40:56.098Z,9.72
2018-11-12T03:43:44.486Z,9.73
2018-11-12T03:46:14.408Z,9.61
2018-11-12T03:48:44.371Z,9.57
2018-11-12T03:51:14.109Z,9.52
2018-11-12T03:53:43.921Z,9.45
2018-11-12T03:56:13.705Z,9.39
2018-11-12T03:58:43.751Z,9.38
2018-11-12T04:01:13.242Z,9.39
2018-11-12T04:03:42.945Z,9.37
2018-11-12T04:06:12.817Z,9.25
2018-11-12T04:08:42.261Z,9.22
2018-11-12T04:11:11.732Z,9.24
2018-11-12T04:14:00.110Z,9.24
2018-11-12T04:16:29.544Z,9.32
2018-11-12T04:18:58.976Z,9.41
2018-11-12T04:21:47.357Z,9.39
2018-11-12T04:24:17.040Z,9.56
2018-11-12T04:27:05.508Z,9.64
2018-11-12T04:29:35.328Z,9.86
2018-11-12T04:32:23.705Z,9.72
2018-11-12T04:35:12.242Z,9.68
2018-11-12T04:37:41.943Z,9.58
2018-11-12T04:40:14.402Z,9.78
2018-11-12T04:42:44.480Z,9.73
2018-11-12T04:45:15.262Z,9.82
2018-11-12T04:47:45.472Z,9.87
2018-11-12T04:50:16.963Z,9.91
2018-11-12T04:52:46.749Z,9.90
2018-11-12T04:55:34.917Z,9.92
2018-11-12T04:58:05.231Z,9.92
2018-11-12T05:00:34.669Z,9.79
2018-11-12T05:03:23.082Z,9.75
2018-11-12T05:05:52.506Z,9.66
2018-11-12T05:08:22.594Z,9.54
2018-11-12T05:10:52.040Z,9.50
2018-11-12T05:13:40.443Z,9.50
2018-11-12T05:16:09.889Z,9.46
2018-11-12T05:18:39.309Z,9.41
2018-11-12T05:21:08.737Z,9.46
2018-11-12T05:23:39.455Z,9.43
2018-11-12T05:26:27.856Z,9.45
2018-11-12T05:28:57.325Z,9.47
2018-11-12T05:31:26.753Z,9.50
2018-11-12T05:34:15.484Z,9.49
2018-11-12T05:36:44.914Z,9.45
2018-11-12T05:39:14.646Z,9.30
2018-11-12T05:41:44.392Z,9.23
2018-11-12T05:44:13.824Z,9.25
2018-11-12T05:47:01.938Z,9.31
2018-11-12T05:49:31.634Z,9.47
2018-11-12T05:52:01.460Z,9.54
2018-11-12T05:54:31.321Z,9.64
2018-11-12T05:57:01.023Z,9.44
2018-11-12T05:59:30.718Z,9.50
2018-11-12T06:02:00.705Z,9.52
2018-11-12T06:04:30.137Z,9.53
2018-11-12T06:06:59.607Z,9.57
2018-11-12T06:09:29.321Z,9.52
2018-11-12T06:12:17.451Z,9.34
2018-11-12T06:14:47.499Z,9.43
2018-11-12T06:17:16.945Z,9.43
2018-11-12T06:19:46.380Z,9.42
2018-11-12T06:22:16.403Z,9.34
2018-11-12T06:24:45.830Z,9.36
2018-11-12T06:27:34.289Z,9.24
2018-11-12T06:30:04.105Z,9.51
2018-11-12T06:32:33.867Z,9.58
2018-11-12T06:35:22.515Z,9.50
2018-11-12T06:38:11.111Z,9.38
2018-11-12T06:40:40.819Z,9.45
2018-11-12T06:43:28.926Z,9.49
2018-11-12T06:46:17.045Z,9.48
2018-11-12T06:48:47.138Z,9.45
2018-11-12T06:51:16.851Z,9.50
2018-11-12T06:53:46.300Z,9.48
2018-11-12T06:56:15.730Z,9.52
2018-11-12T06:58:45.988Z,9.55
2018-11-12T07:01:15.835Z,9.55
2018-11-12T07:03:45.271Z,9.51
2018-11-12T07:06:15.404Z,9.41
2018-11-12T07:08:45.460Z,9.42
2018-11-12T07:11:34.150Z,9.41
2018-11-12T07:14:03.583Z,9.48
2018-11-12T07:16:33.014Z,9.58
2018-11-12T07:19:02.850Z,9.47
2018-11-12T07:21:32.570Z,9.54
2018-11-12T07:24:02.347Z,9.63
2018-11-12T07:26:32.091Z,9.79
2018-11-12T07:29:02.729Z,9.88
2018-11-12T07:31:32.162Z,9.86
2018-11-12T07:34:01.869Z,9.94
2018-11-12T07:36:31.384Z,10.24
2018-11-12T07:39:01.159Z,10.06
2018-11-12T07:41:31.114Z,10.14
2018-11-12T07:44:00.574Z,10.19
2018-11-12T07:46:30.147Z,10.38
2018-11-12T07:49:00.353Z,10.60
2018-11-12T07:51:49.245Z,10.83
2018-11-12T07:54:19.054Z,10.86
2018-11-12T07:56:48.948Z,11.00
2018-11-12T07:59:18.438Z,11.17
2018-11-12T08:01:47.953Z,11.39
2018-11-12T08:04:17.790Z,11.68
2018-11-12T08:06:47.526Z,11.69
2018-11-12T08:09:17.818Z,11.94
2018-11-12T08:12:06.561Z,12.12
2018-11-12T08:14:54.840Z,12.22
2018-11-12T08:17:43.791Z,12.41
2018-11-12T08:20:32.263Z,12.54
2018-11-12T08:23:02.018Z,12.79
2018-11-12T08:25:31.830Z,12.87
2018-11-12T08:28:20.162Z,13.04
2018-11-12T08:30:49.927Z,13.19
2018-11-12T08:33:19.665Z,13.17
2018-11-12T08:35:49.159Z,13.36
2018-11-12T08:38:19.215Z,13.47
2018-11-12T08:40:48.914Z,13.57
2018-11-12T08:43:18.536Z,13.79
2018-11-12T08:45:48.280Z,13.88
2018-11-12T08:48:18.067Z,14.01
2018-11-12T08:50:47.992Z,14.18
2018-11-12T08:53:17.408Z,14.19
2018-11-12T08:55:47.279Z,14.34
2018-11-12T08:58:17.991Z,14.39
2018-11-12T09:00:46.628Z,14.45
2018-11-12T09:03:35.254Z,14.58
2018-11-12T09:06:04.912Z,14.58
2018-11-12T09:08:35.694Z,14.70
2018-11-12T09:11:05.652Z,14.78
2018-11-12T09:13:35.393Z,14.88
2018-11-12T09:16:24.320Z,14.94
2018-11-12T09:18:54.912Z,15.00
2018-11-12T09:21:24.751Z,15.00
2018-11-12T09:23:54.848Z,15.11
2018-11-12T09:26:24.898Z,15.11
2018-11-12T09:29:14.405Z,15.43
2018-11-12T09:31:44.558Z,15.43
2018-11-12T09:34:14.654Z,15.21
2018-11-12T09:37:03.290Z,15.38
2018-11-12T09:39:52.298Z,15.13
2018-11-12T09:42:22.165Z,15.13
2018-11-12T09:44:52.238Z,15.02
2018-11-12T09:47:21.717Z,15.36
2018-11-12T09:49:51.602Z,15.24
2018-11-12T09:52:21.037Z,15.47
2018-11-12T09:55:09.799Z,15.24
2018-11-12T09:57:40.106Z,15.10
2018-11-12T10:00:15.314Z,15.38
2018-11-12T10:02:47.171Z,15.38
2018-11-12T10:05:36.273Z,15.50
2018-11-12T10:08:29.190Z,15.50
2018-11-12T10:11:01.342Z,15.52
2018-11-12T10:13:50.242Z,15.58
2018-11-12T10:16:19.844Z,15.76
2018-11-12T10:18:46.996Z,15.76
2018-11-12T10:21:35.748Z,15.79
2018-11-12T10:24:24.206Z,15.96
2018-11-12T10:26:53.700Z,15.96
2018-11-12T10:29:23.166Z,16.01
2018-11-12T10:31:53.950Z,15.94
2018-11-12T10:34:24.039Z,15.95
2018-11-12T10:37:12.232Z,15.77
2018-11-12T10:39:41.755Z,15.80
2018-11-12T10:42:11.544Z,15.76
2018-11-12T10:45:00.116Z,15.68
2018-11-12T10:47:48.699Z,15.68
2018-11-12T10:50:18.154Z,15.67
2018-11-12T10:52:48.083Z,15.93
2018-11-12T10:55:19.484Z,15.72
2018-11-12T10:58:07.926Z,15.83
2018-11-12T11:00:56.655Z,15.84
2018-11-12T11:03:45.001Z,15.75
2018-11-12T11:06:14.475Z,15.77
2018-11-12T11:08:44.417Z,15.96
2018-11-12T11:11:14.188Z,15.98
2018-11-12T11:14:02.688Z,15.87
2018-11-12T11:16:51.139Z,15.85
2018-11-12T11:19:21.621Z,15.66
2018-11-12T11:22:10.517Z,15.84
2018-11-12T11:24:42.449Z,15.84
2018-11-12T11:27:12.543Z,15.90
2018-11-12T11:29:42.509Z,15.96
2018-11-12T11:32:11.976Z,16.03
2018-11-12T11:34:41.547Z,16.17
2018-11-12T11:37:11.000Z,16.23
2018-11-12T11:39:41.036Z,16.10
2018-11-12T11:42:29.441Z,15.98
2018-11-12T11:44:58.947Z,16.08
2018-11-12T11:47:48.396Z,16.08
2018-11-12T11:50:37.077Z,15.98
2018-11-12T11:53:06.790Z,15.94
2018-11-12T11:55:36.606Z,16.20
2018-11-12T11:58:06.352Z,16.20
2018-11-12T12:00:54.921Z,16.03
2018-11-12T12:03:24.631Z,16.08
2018-11-12T12:05:57.062Z,16.14
2018-11-12T12:08:26.713Z,16.28
2018-11-12T12:10:56.602Z,16.26
2018-11-12T12:13:26.470Z,16.14
2018-11-12T12:15:56.006Z,16.21
2018-11-12T12:18:26.298Z,16.21
2018-11-12T12:20:56.124Z,16.17
2018-11-12T12:23:25.512Z,16.13
2018-11-12T12:26:13.944Z,16.28
2018-11-12T12:28:44.451Z,16.28
2018-11-12T12:31:14.322Z,16.33
2018-11-12T12:34:02.666Z,16.42
2018-11-12T12:36:32.867Z,16.39
2018-11-12T12:39:02.550Z,16.56
2018-11-12T12:41:32.715Z,16.50
2018-11-12T12:44:21.369Z,16.47
2018-11-12T12:46:52.407Z,16.38
2018-11-12T12:49:39.230Z,16.44
2018-11-12T12:52:27.963Z,16.29
2018-11-12T12:55:16.164Z,16.39
2018-11-12T12:57:46.283Z,16.55
2018-11-12T13:00:34.735Z,16.53
2018-11-12T13:03:04.711Z,16.49
2018-11-12T13:05:36.389Z,16.43
2018-11-12T13:08:25.623Z,16.27
2018-11-12T13:10:56.649Z,16.27
2018-11-12T13:13:26.076Z,16.25
2018-11-12T13:16:14.946Z,16.32
2018-11-12T13:18:44.388Z,16.32
2018-11-12T13:21:14.523Z,16.52
2018-11-12T13:23:43.883Z,16.52
2018-11-12T13:26:13.792Z,16.54
2018-11-12T13:28:43.593Z,16.56
2018-11-12T13:31:13.085Z,16.59
2018-11-12T13:33:42.886Z,16.70
2018-11-12T13:36:12.885Z,17.17
2018-11-12T13:38:42.331Z,17.21
2018-11-12T13:41:30.990Z,17.30
2018-11-12T13:44:19.412Z,17.41
2018-11-12T13:47:07.834Z,17.40
2018-11-12T13:49:37.583Z,17.51
2018-11-12T13:52:07.180Z,17.57
2018-11-12T13:54:36.645Z,17.44
2018-11-12T13:57:06.630Z,17.19
2018-11-12T13:59:36.466Z,16.88
2018-11-12T14:02:06.245Z,16.68
2018-11-12T14:04:36.045Z,16.56
2018-11-12T14:07:24.599Z,16.25
2018-11-12T14:09:54.933Z,16.35
2018-11-12T14:12:44.089Z,16.33
2018-11-12T14:15:33.158Z,16.04
2018-11-12T14:18:02.928Z,16.04
2018-11-12T14:20:32.781Z,16.02
2018-11-12T14:23:02.211Z,16.02
2018-11-12T14:25:31.667Z,15.96
2018-11-12T14:28:01.201Z,15.93
2018-11-12T14:30:31.518Z,15.93
2018-11-12T14:33:20.078Z,15.83
2018-11-12T14:35:49.555Z,15.71
2018-11-12T14:38:19.452Z,15.67
2018-11-12T14:40:48.926Z,15.49
2018-11-12T14:43:18.449Z,15.48
2018-11-12T14:45:48.380Z,15.31
2018-11-12T14:48:17.913Z,15.28
2018-11-12T14:51:06.576Z,15.24
2018-11-12T14:53:36.636Z,15.24
2018-11-12T14:56:06.280Z,15.17
2018-11-12T14:58:55.015Z,14.98
2018-11-12T15:01:44.166Z,14.98
2018-11-12T15:04:32.529Z,14.93
2018-11-12T15:07:21.607Z,14.86
2018-11-12T15:09:51.427Z,14.86
2018-11-12T15:12:21.163Z,14.89
2018-11-12T15:15:09.453Z,14.94
2018-11-12T15:17:38.868Z,15.07
2018-11-12T15:20:28.453Z,14.99
2018-11-12T15:23:17.257Z,15.01
2018-11-12T15:26:05.796Z,14.93
2018-11-12T15:28:54.844Z,14.84
2018-11-12T15:31:25.059Z,14.84
2018-11-12T15:33:54.525Z,14.74
2018-11-12T15:36:24.632Z,14.74
2018-11-12T15:38:54.332Z,14.68
2018-11-12T15:41:42.435Z,14.68
2018-11-12T15:44:11.882Z,14.60
2018-11-12T15:47:00.577Z,14.65
2018-11-12T15:49:49.054Z,14.70
2018-11-12T15:52:18.569Z,14.70
2018-11-12T15:55:07.080Z,14.64
2018-11-12T15:57:36.673Z,14.62
2018-11-12T16:00:07.230Z,14.40
2018-11-12T16:02:56.116Z,14.37
2018-11-12T16:05:25.558Z,14.37
2018-11-12T16:08:14.675Z,14.14
2018-11-12T16:10:44.562Z,14.14
2018-11-12T16:13:14.782Z,14.19
2018-11-12T16:15:44.215Z,14.28
2018-11-12T16:18:14.486Z,14.61
2018-11-12T16:20:43.927Z,14.61
2018-11-12T16:23:13.913Z,14.55
2018-11-12T16:26:02.396Z,14.56
2018-11-12T16:28:31.824Z,14.56
2018-11-12T16:31:02.278Z,14.52
2018-11-12T16:33:31.764Z,14.53
2018-11-12T16:36:01.897Z,14.56
2018-11-12T16:38:31.806Z,14.55
2018-11-12T16:41:20.189Z,14.49
2018-11-12T16:44:09.409Z,14.75
2018-11-12T16:46:39.167Z,14.75
2018-11-12T16:49:09.006Z,14.89
2018-11-12T16:51:38.715Z,14.99
2018-11-12T16:54:08.271Z,14.97
2018-11-12T16:56:38.080Z,15.01
2018-11-12T16:59:26.202Z,14.94
2018-11-12T17:01:56.596Z,15.04
2018-11-12T17:04:45.337Z,15.03
2018-11-12T17:07:33.802Z,15.13
2018-11-12T17:10:23.662Z,15.05
2018-11-12T17:12:53.744Z,15.05
2018-11-12T17:15:23.208Z,14.98
2018-11-12T17:17:52.991Z,15.01
2018-11-12T17:20:22.958Z,14.97
2018-11-12T17:23:11.660Z,14.85
2018-11-12T17:25:41.052Z,14.73
2018-11-12T17:28:29.506Z,14.79
2018-11-12T17:31:18.520Z,14.78
2018-11-12T17:34:07.337Z,14.53
2018-11-12T17:36:37.401Z,14.53
2018-11-12T17:39:26.811Z,14.49
2018-11-12T17:41:56.869Z,14.49
2018-11-12T17:44:45.270Z,14.59
2018-11-12T17:47:14.743Z,14.55
2018-11-12T17:49:44.326Z,14.56
2018-11-12T17:52:32.712Z,14.53
2018-11-12T17:55:02.902Z,14.55
2018-11-12T17:57:32.319Z,14.57
2018-11-12T18:00:40.212Z,14.57
2018-11-12T18:03:28.479Z,14.57
2018-11-12T18:05:57.960Z,14.60
2018-11-12T18:08:27.948Z,14.62
2018-11-12T18:11:16.677Z,14.61
2018-11-12T18:13:53.633Z,14.61
2018-11-12T18:16:42.162Z,14.78
2018-11-12T18:19:11.604Z,14.78
2018-11-12T18:22:00.142Z,14.79
2018-11-12T18:24:29.629Z,14.87
2018-11-12T18:26:59.451Z,14.85
2018-11-12T18:29:29.248Z,14.98
2018-11-12T18:32:17.669Z,14.97
2018-11-12T18:35:06.305Z,14.99
2018-11-12T18:37:54.550Z,14.99
2018-11-12T18:40:42.545Z,15.20
2018-11-12T18:43:12.044Z,15.19
2018-11-12T18:45:41.478Z,14.92
2018-11-12T18:48:11.232Z,15.05
2018-11-12T18:50:59.678Z,14.96
2018-11-12T18:53:48.454Z,14.93
2018-11-12T18:56:17.906Z,14.93
2018-11-12T18:58:47.393Z,14.92
2018-11-12T19:01:35.507Z,14.65
2018-11-12T19:04:23.975Z,14.42
2018-11-12T19:07:12.136Z,14.42
2018-11-12T19:09:42.515Z,14.29
2018-11-12T19:12:30.969Z,14.14
2018-11-12T19:15:00.563Z,14.07
2018-11-12T19:17:50.542Z,13.87
2018-11-12T19:20:38.980Z,13.92
2018-11-12T19:23:08.452Z,13.92
2018-11-12T19:25:37.907Z,13.85
2018-11-12T19:28:07.360Z,13.77
2018-11-12T19:30:37.172Z,13.79
2018-11-12T19:33:06.731Z,13.74
2018-11-12T19:35:37.520Z,13.67
2018-11-12T19:38:07.301Z,13.63
2018-11-12T19:40:36.797Z,13.69
2018-11-12T19:43:24.932Z,13.64
2018-11-12T19:46:13.310Z,13.53
2018-11-12T19:48:43.608Z,13.46
2018-11-12T19:51:32.158Z,13.38
2018-11-12T19:54:20.431Z,13.30
2018-11-12T19:57:08.677Z,13.24
2018-11-12T19:59:56.773Z,13.28
2018-11-12T20:02:26.255Z,13.18
2018-11-12T20:04:55.727Z,13.11
2018-11-12T20:07:25.179Z,13.18
2018-11-12T20:09:54.669Z,13.08
2018-11-12T20:12:24.630Z,12.99
2018-11-12T20:14:54.379Z,12.85
2018-11-12T20:17:24.240Z,12.73
2018-11-12T20:19:54.056Z,12.67
2018-11-12T20:22:23.793Z,12.63
2018-11-12T20:24:53.510Z,12.69
2018-11-12T20:27:23.607Z,12.69
2018-11-12T20:29:53.385Z,12.70
2018-11-12T20:32:22.868Z,12.68
2018-11-12T20:34:52.707Z,12.70
2018-11-12T20:37:41.232Z,12.72
2018-11-12T20:40:12.014Z,12.69
2018-11-12T20:42:42.646Z,12.54
2018-11-12T20:45:13.517Z,12.52
2018-11-12T20:47:44.397Z,12.47
2018-11-12T20:50:14.619Z,12.37
2018-11-12T20:52:44.542Z,12.24
2018-11-12T20:55:15.291Z,12.32
2018-11-12T20:57:45.301Z,12.43
2018-11-12T21:00:34.383Z,12.44
2018-11-12T21:03:04.331Z,12.40
2018-11-12T21:05:33.807Z,12.47
2018-11-12T21:08:22.634Z,12.51
2018-11-12T21:10:52.106Z,12.54
2018-11-12T21:13:22.512Z,12.54
2018-11-12T21:15:52.076Z,12.55
2018-11-12T21:18:21.519Z,12.66
2018-11-12T21:20:51.122Z,12.68
2018-11-12T21:23:20.587Z,12.75
2018-11-12T21:25:50.037Z,12.81
2018-11-12T21:28:19.807Z,12.87
2018-11-12T21:30:49.278Z,12.89
2018-11-12T21:33:18.991Z,12.91
2018-11-12T21:35:49.268Z,12.91
2018-11-12T21:38:18.698Z,12.87
2018-11-12T21:41:07.407Z,13.04
2018-11-12T21:43:56.214Z,13.10
2018-11-12T21:46:25.663Z,12.90
2018-11-12T21:48:56.522Z,12.89
2018-11-12T21:51:44.688Z,12.95
2018-11-12T21:54:14.456Z,12.97
2018-11-12T21:56:44.318Z,12.95
2018-11-12T21:59:14.518Z,13.09
2018-11-12T22:01:44.733Z,12.98
2018-11-12T22:04:15.064Z,12.92
2018-11-12T22:07:04.078Z,12.87
2018-11-12T22:09:34.000Z,12.79
2018-11-12T22:12:03.436Z,12.82
2018-11-12T22:14:33.317Z,12.83
2018-11-12T22:17:03.423Z,12.95
2018-11-12T22:19:33.072Z,12.91
2018-11-12T22:22:02.671Z,12.83
2018-11-12T22:24:32.686Z,12.80
2018-11-12T22:27:02.222Z,12.94
2018-11-12T22:29:33.708Z,13.02
2018-11-12T22:32:03.435Z,13.06
2018-11-12T22:34:33.175Z,12.99
2018-11-12T22:37:02.837Z,12.92
2018-11-12T22:39:32.800Z,12.83
2018-11-12T22:42:02.400Z,12.74
2018-11-12T22:44:32.703Z,12.71
2018-11-12T22:47:04.490Z,12.71
2018-11-12T22:49:34.129Z,12.76
2018-11-12T22:52:03.774Z,12.68
2018-11-12T22:54:35.599Z,12.72
2018-11-12T22:57:07.886Z,12.70
2018-11-12T22:59:37.551Z,12.69
2018-11-12T23:02:09.750Z,12.74
2018-11-12T23:04:58.363Z,12.74
2018-11-12T23:07:27.983Z,12.71
2018-11-12T23:10:16.970Z,12.68
2018-11-12T23:12:46.461Z,12.68
2018-11-12T23:15:34.903Z,12.67
2018-11-12T23:18:04.442Z,12.71
2018-11-12T23:20:33.934Z,12.70
2018-11-12T23:23:22.316Z,12.82
2018-11-12T23:25:52.459Z,12.74
2018-11-12T23:28:40.932Z,12.79
2018-11-12T23:31:29.042Z,12.71
2018-11-12T23:33:58.510Z,12.69
2018-11-12T23:36:27.993Z,12.74
2018-11-12T23:38:57.509Z,12.76
2018-11-12T23:41:26.953Z,12.89
2018-11-12T23:43:57.058Z,12.92
2018-11-12T23:46:26.506Z,12.91
2018-11-12T23:48:56.324Z,12.99
2018-11-12T23:51:44.429Z,12.92
2018-11-12T23:54:33.145Z,12.91
2018-11-12T23:57:03.736Z,12.82
2018-11-12T23:59:33.595Z,12.86
